sensor_id;sensor_type;location;lat;lon;timestamp;pressure;altitude;pressure_sealevel;temperature;humidity
68941;BME280;55982;51.476;7.552;2023-02-17T00:00:16;100183.06;;;8.92;100.00
68941;BME280;55982;51.476;7.552;2023-02-17T00:02:41;100176.94;;;8.94;100.00
68941;BME280;55982;51.476;7.552;2023-02-17T00:05:06;100173.44;;;8.95;100.00
68941;BME280;55982;51.476;7.552;2023-02-17T00:07:32;100174.25;;;8.99;100.00
68941;BME280;55982;51.476;7.552;2023-02-17T00:09:57;100162.03;;;8.99;100.00
68941;BME280;55982;51.476;7.552;2023-02-17T00:12:23;100175.03;;;9.02;100.00
68941;BME280;55982;51.476;7.552;2023-02-17T00:14:48;100174.97;;;9.05;100.00
68941;BME280;55982;51.476;7.552;2023-02-17T00:17:13;100160.09;;;9.09;100.00
68941;BME280;55982;51.476;7.552;2023-02-17T00:19:38;100156.53;;;9.13;100.00
68941;BME280;55982;51.476;7.552;2023-02-17T00:22:04;100170.34;;;9.16;100.00
68941;BME280;55982;51.476;7.552;2023-02-17T00:24:32;100157.34;;;9.15;100.00
68941;BME280;55982;51.476;7.552;2023-02-17T00:26:58;100149.44;;;9.19;100.00
68941;BME280;55982;51.476;7.552;2023-02-17T00:29:23;100142.47;;;9.18;100.00
68941;BME280;55982;51.476;7.552;2023-02-17T00:31:52;100135.47;;;9.22;100.00
68941;BME280;55982;51.476;7.552;2023-02-17T00:34:18;100134.50;;;9.24;100.00
68941;BME280;55982;51.476;7.552;2023-02-17T00:36:43;100137.19;;;9.21;100.00
68941;BME280;55982;51.476;7.552;2023-02-17T00:39:10;100127.44;;;9.30;100.00
68941;BME280;55982;51.476;7.552;2023-02-17T00:41:36;100135.25;;;9.31;100.00
68941;BME280;55982;51.476;7.552;2023-02-17T00:44:01;100126.63;;;9.26;100.00
68941;BME280;55982;51.476;7.552;2023-02-17T00:46:27;100132.63;;;9.31;100.00
68941;BME280;55982;51.476;7.552;2023-02-17T00:48:52;100126.50;;;9.32;100.00
68941;BME280;55982;51.476;7.552;2023-02-17T00:51:18;100126.41;;;9.37;100.00
68941;BME280;55982;51.476;7.552;2023-02-17T00:53:44;100124.66;;;9.37;100.00
68941;BME280;55982;51.476;7.552;2023-02-17T00:56:09;100121.19;;;9.37;100.00
68941;BME280;55982;51.476;7.552;2023-02-17T00:58:35;100122.88;;;9.38;100.00
68941;BME280;55982;51.476;7.552;2023-02-17T01:01:00;100122.06;;;9.36;100.00
68941;BME280;55982;51.476;7.552;2023-02-17T01:03:26;100115.00;;;9.41;100.00
68941;BME280;55982;51.476;7.552;2023-02-17T01:05:53;100115.00;;;9.41;100.00
68941;BME280;55982;51.476;7.552;2023-02-17T01:08:19;100114.03;;;9.45;100.00
68941;BME280;55982;51.476;7.552;2023-02-17T01:10:45;100109.69;;;9.44;100.00
68941;BME280;55982;51.476;7.552;2023-02-17T01:13:11;100106.13;;;9.48;100.00
68941;BME280;55982;51.476;7.552;2023-02-17T01:15:37;100104.31;;;9.50;100.00
68941;BME280;55982;51.476;7.552;2023-02-17T01:18:02;100109.50;;;9.53;100.00
68941;BME280;55982;51.476;7.552;2023-02-17T01:20:28;100119.94;;;9.53;100.00
68941;BME280;55982;51.476;7.552;2023-02-17T01:22:53;100111.09;;;9.57;100.00
68941;BME280;55982;51.476;7.552;2023-02-17T01:25:18;100107.53;;;9.61;100.00
68941;BME280;55982;51.476;7.552;2023-02-17T01:27:43;100112.75;;;9.61;100.00
68941;BME280;55982;51.476;7.552;2023-02-17T01:30:08;100103.31;;;9.55;100.00
68941;BME280;55982;51.476;7.552;2023-02-17T01:32:35;100098.88;;;9.59;100.00
68941;BME280;55982;51.476;7.552;2023-02-17T01:35:00;100093.66;;;9.59;100.00
68941;BME280;55982;51.476;7.552;2023-02-17T01:37:25;100084.94;;;9.60;100.00
68941;BME280;55982;51.476;7.552;2023-02-17T01:39:51;100082.31;;;9.60;100.00
68941;BME280;55982;51.476;7.552;2023-02-17T01:42:16;100070.91;;;9.64;100.00
68941;BME280;55982;51.476;7.552;2023-02-17T01:47:27;100073.56;;;9.62;100.00
68941;BME280;55982;51.476;7.552;2023-02-17T01:49:53;100070.91;;;9.64;100.00
68941;BME280;55982;51.476;7.552;2023-02-17T01:52:19;100060.44;;;9.64;100.00
68941;BME280;55982;51.476;7.552;2023-02-17T01:55:00;100070.75;;;9.70;100.00
68941;BME280;55982;51.476;7.552;2023-02-17T01:57:28;100069.88;;;9.69;100.00
68941;BME280;55982;51.476;7.552;2023-02-17T01:59:54;100066.44;;;9.67;100.00
68941;BME280;55982;51.476;7.552;2023-02-17T02:02:20;100063.78;;;9.69;100.00
68941;BME280;55982;51.476;7.552;2023-02-17T02:04:46;100072.38;;;9.74;100.00
68941;BME280;55982;51.476;7.552;2023-02-17T02:07:15;100068.91;;;9.73;100.00
68941;BME280;55982;51.476;7.552;2023-02-17T02:09:45;100056.81;;;9.69;100.00
68941;BME280;55982;51.476;7.552;2023-02-17T02:12:15;100061.94;;;9.74;100.00
68941;BME280;55982;51.476;7.552;2023-02-17T02:14:41;100060.16;;;9.76;100.00
68941;BME280;55982;51.476;7.552;2023-02-17T02:29:55;100067.16;;;9.74;100.00
68941;BME280;55982;51.476;7.552;2023-02-17T02:32:38;100061.13;;;9.72;100.00
68941;BME280;55982;51.476;7.552;2023-02-17T02:40:26;100057.53;;;9.76;100.00
68941;BME280;55982;51.476;7.552;2023-02-17T02:42:53;100054.91;;;9.76;100.00
68941;BME280;55982;51.476;7.552;2023-02-17T02:45:20;100058.31;;;9.78;100.00
68941;BME280;55982;51.476;7.552;2023-02-17T02:50:12;100050.47;;;9.79;100.00
68941;BME280;55982;51.476;7.552;2023-02-17T03:02:45;100017.81;;;9.94;100.00
68941;BME280;55982;51.476;7.552;2023-02-17T03:05:18;100008.19;;;9.96;100.00
68941;BME280;55982;51.476;7.552;2023-02-17T03:07:53;99997.53;;;10.03;100.00
68941;BME280;55982;51.476;7.552;2023-02-17T03:10:20;100000.25;;;9.99;100.00
68941;BME280;55982;51.476;7.552;2023-02-17T03:12:45;99991.44;;;10.03;100.00
68941;BME280;55982;51.476;7.552;2023-02-17T03:15:13;99993.22;;;10.01;100.00
68941;BME280;55982;51.476;7.552;2023-02-17T03:17:38;99992.28;;;10.03;100.00
68941;BME280;55982;51.476;7.552;2023-02-17T03:20:04;99998.38;;;10.04;100.00
68941;BME280;55982;51.476;7.552;2023-02-17T03:22:34;99997.41;;;10.08;100.00
68941;BME280;55982;51.476;7.552;2023-02-17T03:25:00;99993.03;;;10.10;100.00
68941;BME280;55982;51.476;7.552;2023-02-17T03:27:26;100003.38;;;10.13;100.00
68941;BME280;55982;51.476;7.552;2023-02-17T03:29:52;99994.56;;;10.17;100.00
68941;BME280;55982;51.476;7.552;2023-02-17T03:32:18;100005.94;;;10.16;100.00
68941;BME280;55982;51.476;7.552;2023-02-17T03:34:43;100004.03;;;10.21;100.00
68941;BME280;55982;51.476;7.552;2023-02-17T03:37:08;100005.72;;;10.22;100.00
68941;BME280;55982;51.476;7.552;2023-02-17T03:39:33;100003.97;;;10.23;100.00
68941;BME280;55982;51.476;7.552;2023-02-17T03:41:58;100002.09;;;10.28;100.00
68941;BME280;55982;51.476;7.552;2023-02-17T03:44:24;99989.97;;;10.25;100.00
68941;BME280;55982;51.476;7.552;2023-02-17T03:46:49;99990.84;;;10.24;100.00
68941;BME280;55982;51.476;7.552;2023-02-17T03:49:14;99990.00;;;10.24;100.00
68941;BME280;55982;51.476;7.552;2023-02-17T03:51:39;99997.81;;;10.25;100.00
68941;BME280;55982;51.476;7.552;2023-02-17T03:54:05;99988.88;;;10.32;100.00
68941;BME280;55982;51.476;7.552;2023-02-17T03:56:30;99994.22;;;10.29;100.00
68941;BME280;55982;51.476;7.552;2023-02-17T03:58:57;99996.78;;;10.31;100.00
68941;BME280;55982;51.476;7.552;2023-02-17T04:01:22;100008.94;;;10.32;100.00
68941;BME280;55982;51.476;7.552;2023-02-17T04:03:47;100001.88;;;10.35;100.00
68941;BME280;55982;51.476;7.552;2023-02-17T04:06:13;100006.19;;;10.36;100.00
68941;BME280;55982;51.476;7.552;2023-02-17T04:08:38;100004.50;;;10.35;100.00
68941;BME280;55982;51.476;7.552;2023-02-17T04:11:05;100006.94;;;10.40;100.00
68941;BME280;55982;51.476;7.552;2023-02-17T04:13:30;100004.38;;;10.38;100.00
68941;BME280;55982;51.476;7.552;2023-02-17T04:15:56;99997.25;;;10.43;100.00
68941;BME280;55982;51.476;7.552;2023-02-17T04:18:21;100012.94;;;10.43;100.00
68941;BME280;55982;51.476;7.552;2023-02-17T04:20:47;100016.38;;;10.45;100.00
68941;BME280;55982;51.476;7.552;2023-02-17T04:23:12;100014.84;;;10.38;100.00
68941;BME280;55982;51.476;7.552;2023-02-17T04:25:38;100007.88;;;10.39;100.00
68941;BME280;55982;51.476;7.552;2023-02-17T04:28:04;100001.72;;;10.40;100.00
68941;BME280;55982;51.476;7.552;2023-02-17T04:30:30;99997.25;;;10.43;100.00
68941;BME280;55982;51.476;7.552;2023-02-17T04:32:55;99999.16;;;10.38;100.00
68941;BME280;55982;51.476;7.552;2023-02-17T04:35:21;99999.97;;;10.40;100.00
68941;BME280;55982;51.476;7.552;2023-02-17T04:37:46;100001.59;;;10.44;100.00
68941;BME280;55982;51.476;7.552;2023-02-17T04:40:11;100000.69;;;10.45;100.00
68941;BME280;55982;51.476;7.552;2023-02-17T04:42:37;99994.44;;;10.51;100.00
68941;BME280;55982;51.476;7.552;2023-02-17T04:45:03;99977.94;;;10.47;100.00
68941;BME280;55982;51.476;7.552;2023-02-17T04:47:31;99950.19;;;10.43;100.00
68941;BME280;55982;51.476;7.552;2023-02-17T04:49:56;99978.88;;;10.46;100.00
68941;BME280;55982;51.476;7.552;2023-02-17T04:52:21;99986.72;;;10.46;100.00
68941;BME280;55982;51.476;7.552;2023-02-17T04:54:46;99984.75;;;10.53;100.00
68941;BME280;55982;51.476;7.552;2023-02-17T04:57:11;99974.34;;;10.51;100.00
68941;BME280;55982;51.476;7.552;2023-02-17T04:59:37;99971.03;;;10.46;100.00
68941;BME280;55982;51.476;7.552;2023-02-17T05:02:02;99965.69;;;10.49;100.00
68941;BME280;55982;51.476;7.552;2023-02-17T05:04:27;99967.50;;;10.47;100.00
68941;BME280;55982;51.476;7.552;2023-02-17T05:06:53;99964.06;;;10.45;100.00
68941;BME280;55982;51.476;7.552;2023-02-17T05:09:18;99956.22;;;10.45;100.00
68941;BME280;55982;51.476;7.552;2023-02-17T05:11:43;99946.66;;;10.44;100.00
68941;BME280;55982;51.476;7.552;2023-02-17T05:14:08;99958.94;;;10.42;100.00
68941;BME280;55982;51.476;7.552;2023-02-17T05:16:34;99953.72;;;10.42;100.00
68941;BME280;55982;51.476;7.552;2023-02-17T05:18:59;99965.88;;;10.43;100.00
68941;BME280;55982;51.476;7.552;2023-02-17T05:21:24;99967.66;;;10.41;100.00
68941;BME280;55982;51.476;7.552;2023-02-17T05:23:49;99978.13;;;10.41;100.00
68941;BME280;55982;51.476;7.552;2023-02-17T05:26:15;99976.31;;;10.43;100.00
68941;BME280;55982;51.476;7.552;2023-02-17T05:28:40;99981.44;;;10.48;100.00
68941;BME280;55982;51.476;7.552;2023-02-17T05:31:05;99985.81;;;10.47;100.00
68941;BME280;55982;51.476;7.552;2023-02-17T05:33:31;99981.38;;;10.49;100.00
68941;BME280;55982;51.476;7.552;2023-02-17T05:36:00;99983.09;;;10.50;100.00
68941;BME280;55982;51.476;7.552;2023-02-17T05:38:25;99981.38;;;10.49;100.00
68941;BME280;55982;51.476;7.552;2023-02-17T05:40:50;99983.09;;;10.50;100.00
68941;BME280;55982;51.476;7.552;2023-02-17T05:43:15;99954.28;;;10.52;100.00
68941;BME280;55982;51.476;7.552;2023-02-17T05:45:40;99971.72;;;10.51;100.00
68941;BME280;55982;51.476;7.552;2023-02-17T05:48:06;99959.47;;;10.53;100.00
68941;BME280;55982;51.476;7.552;2023-02-17T05:50:31;99963.69;;;10.57;100.00
68941;BME280;55982;51.476;7.552;2023-02-17T05:52:56;99962.75;;;10.60;100.00
68941;BME280;55982;51.476;7.552;2023-02-17T05:55:21;99961.09;;;10.57;100.00
68941;BME280;55982;51.476;7.552;2023-02-17T05:57:47;99965.44;;;10.58;100.00
68941;BME280;55982;51.476;7.552;2023-02-17T06:00:12;99961.88;;;10.59;100.00
68941;BME280;55982;51.476;7.552;2023-02-17T06:02:38;99956.66;;;10.59;100.00
68941;BME280;55982;51.476;7.552;2023-02-17T06:05:03;99962.66;;;10.63;100.00
68941;BME280;55982;51.476;7.552;2023-02-17T06:07:28;99959.22;;;10.61;100.00
68941;BME280;55982;51.476;7.552;2023-02-17T06:09:54;99953.22;;;10.57;100.00
68941;BME280;55982;51.476;7.552;2023-02-17T06:12:19;99936.69;;;10.57;100.00
68941;BME280;55982;51.476;7.552;2023-02-17T06:14:44;99937.53;;;10.57;100.00
68941;BME280;55982;51.476;7.552;2023-02-17T06:17:09;99931.44;;;10.57;100.00
68941;BME280;55982;51.476;7.552;2023-02-17T06:19:34;99930.69;;;10.53;100.00
68941;BME280;55982;51.476;7.552;2023-02-17T06:22:00;99938.47;;;10.56;100.00
68941;BME280;55982;51.476;7.552;2023-02-17T06:24:25;99934.97;;;10.56;100.00
68941;BME280;55982;51.476;7.552;2023-02-17T06:26:50;99944.34;;;10.63;100.00
68941;BME280;55982;51.476;7.552;2023-02-17T06:29:16;99939.28;;;10.58;100.00
68941;BME280;55982;51.476;7.552;2023-02-17T06:31:41;99942.78;;;10.57;100.00
68941;BME280;55982;51.476;7.552;2023-02-17T06:34:06;99944.44;;;10.60;100.00
68941;BME280;55982;51.476;7.552;2023-02-17T06:36:31;99939.16;;;10.61;100.00
68941;BME280;55982;51.476;7.552;2023-02-17T06:38:57;99946.19;;;10.59;100.00
68941;BME280;55982;51.476;7.552;2023-02-17T06:41:22;99950.44;;;10.63;100.00
68941;BME280;55982;51.476;7.552;2023-02-17T06:43:47;99950.53;;;10.60;100.00
68941;BME280;55982;51.476;7.552;2023-02-17T06:46:13;99948.69;;;10.62;100.00
68941;BME280;55982;51.476;7.552;2023-02-17T06:48:38;99932.97;;;10.64;100.00
68941;BME280;55982;51.476;7.552;2023-02-17T06:51:03;99949.72;;;10.58;100.00
68941;BME280;55982;51.476;7.552;2023-02-17T06:53:28;99957.47;;;10.61;100.00
68941;BME280;55982;51.476;7.552;2023-02-17T06:55:54;99945.25;;;10.62;100.00
68941;BME280;55982;51.476;7.552;2023-02-17T06:58:19;99950.53;;;10.60;100.00
68941;BME280;55982;51.476;7.552;2023-02-17T07:00:44;99963.63;;;10.60;100.00
68941;BME280;55982;51.476;7.552;2023-02-17T07:03:09;99961.78;;;10.62;100.00
68941;BME280;55982;51.476;7.552;2023-02-17T07:05:35;99945.31;;;10.60;100.00
68941;BME280;55982;51.476;7.552;2023-02-17T07:08:01;99939.28;;;10.58;100.00
68941;BME280;55982;51.476;7.552;2023-02-17T07:10:26;99944.50;;;10.58;100.00
68941;BME280;55982;51.476;7.552;2023-02-17T07:12:51;99948.00;;;10.57;100.00
68941;BME280;55982;51.476;7.552;2023-02-17T07:15:17;99959.47;;;10.53;100.00
68941;BME280;55982;51.476;7.552;2023-02-17T07:17:42;99951.63;;;10.53;100.00
68941;BME280;55982;51.476;7.552;2023-02-17T07:20:07;99963.25;;;10.43;100.00
68941;BME280;55982;51.476;7.552;2023-02-17T07:22:33;99959.03;;;10.39;100.00
68941;BME280;55982;51.476;7.552;2023-02-17T07:24:58;99962.66;;;10.35;100.00
68941;BME280;55982;51.476;7.552;2023-02-17T07:27:23;99975.84;;;10.31;100.00
68941;BME280;55982;51.476;7.552;2023-02-17T07:29:49;99983.75;;;10.29;100.00
68941;BME280;55982;51.476;7.552;2023-02-17T07:32:14;99982.13;;;10.25;100.00
68941;BME280;55982;51.476;7.552;2023-02-17T07:34:40;99977.66;;;10.29;100.00
68941;BME280;55982;51.476;7.552;2023-02-17T07:37:05;99948.94;;;10.27;100.00
68941;BME280;55982;51.476;7.552;2023-02-17T07:39:32;99956.72;;;10.29;100.00
68941;BME280;55982;51.476;7.552;2023-02-17T07:41:57;99982.00;;;10.28;100.00
68941;BME280;55982;51.476;7.552;2023-02-17T07:44:25;99968.06;;;10.29;100.00
68941;BME280;55982;51.476;7.552;2023-02-17T07:46:50;99975.84;;;10.31;100.00
68941;BME280;55982;51.476;7.552;2023-02-17T07:49:15;99968.88;;;10.31;100.00
68941;BME280;55982;51.476;7.552;2023-02-17T07:51:41;99971.50;;;10.31;100.00
68941;BME280;55982;51.476;7.552;2023-02-17T07:54:07;99967.88;;;10.35;100.00
68941;BME280;55982;51.476;7.552;2023-02-17T07:56:32;99971.38;;;10.34;100.00
68941;BME280;55982;51.476;7.552;2023-02-17T07:58:58;99965.97;;;10.40;100.00
68941;BME280;55982;51.476;7.552;2023-02-17T08:01:23;99960.56;;;10.46;100.00
68941;BME280;55982;51.476;7.552;2023-02-17T08:03:49;99964.00;;;10.48;100.00
68941;BME280;55982;51.476;7.552;2023-02-17T08:06:16;99949.91;;;10.52;100.00
68941;BME280;55982;51.476;7.552;2023-02-17T08:08:42;99954.22;;;10.53;100.00
68941;BME280;55982;51.476;7.552;2023-02-17T08:11:26;99929.56;;;10.62;100.00
68941;BME280;55982;51.476;7.552;2023-02-17T08:14:10;99949.44;;;10.67;100.00
68941;BME280;55982;51.476;7.552;2023-02-17T08:16:35;99942.41;;;10.69;100.00
68941;BME280;55982;51.476;7.552;2023-02-17T08:19:00;99953.56;;;10.74;100.00
68941;BME280;55982;51.476;7.552;2023-02-17T08:21:26;99954.38;;;10.76;100.00
68941;BME280;55982;51.476;7.552;2023-02-17T08:23:51;99949.88;;;10.80;100.00
68941;BME280;55982;51.476;7.552;2023-02-17T08:26:17;99940.09;;;10.86;100.00
68941;BME280;55982;51.476;7.552;2023-02-17T08:28:43;99942.59;;;10.89;100.00
68941;BME280;55982;51.476;7.552;2023-02-17T08:34:07;99944.94;;;10.98;100.00
68941;BME280;55982;51.476;7.552;2023-02-17T08:36:33;99946.63;;;10.99;100.00
68941;BME280;55982;51.476;7.552;2023-02-17T08:39:01;99941.34;;;11.01;100.00
68941;BME280;55982;51.476;7.552;2023-02-17T08:41:28;99931.66;;;11.04;100.00
68941;BME280;55982;51.476;7.552;2023-02-17T08:43:54;99944.50;;;11.11;100.00
68941;BME280;55982;51.476;7.552;2023-02-17T08:46:19;99927.84;;;11.13;100.00
68941;BME280;55982;51.476;7.552;2023-02-17T08:48:45;99929.59;;;11.14;100.00
68941;BME280;55982;51.476;7.552;2023-02-17T08:51:11;99928.59;;;11.17;100.00
68941;BME280;55982;51.476;7.552;2023-02-17T08:53:37;99914.50;;;11.21;100.00
68941;BME280;55982;51.476;7.552;2023-02-17T08:56:02;99886.41;;;11.26;100.00
68941;BME280;55982;51.476;7.552;2023-02-17T08:58:27;99924.66;;;11.30;100.00
68941;BME280;55982;51.476;7.552;2023-02-17T09:00:52;99934.22;;;11.31;100.00
68941;BME280;55982;51.476;7.552;2023-02-17T09:03:18;99922.84;;;11.32;100.00
68941;BME280;55982;51.476;7.552;2023-02-17T09:05:43;99920.13;;;11.35;100.00
68941;BME280;55982;51.476;7.552;2023-02-17T09:08:08;99915.78;;;11.34;100.00
68941;BME280;55982;51.476;7.552;2023-02-17T09:10:34;99933.00;;;11.41;100.00
68941;BME280;55982;51.476;7.552;2023-02-17T09:13:00;99929.38;;;11.45;100.00
68941;BME280;55982;51.476;7.552;2023-02-17T09:15:25;99929.06;;;11.54;100.00
68941;BME280;55982;51.476;7.552;2023-02-17T09:17:50;99941.00;;;11.61;100.00
68941;BME280;55982;51.476;7.552;2023-02-17T09:20:15;99937.06;;;11.74;100.00
68941;BME280;55982;51.476;7.552;2023-02-17T09:22:43;99938.38;;;11.87;100.00
68941;BME280;55982;51.476;7.552;2023-02-17T09:25:08;99945.94;;;11.94;100.00
68941;BME280;55982;51.476;7.552;2023-02-17T09:27:33;99936.19;;;11.98;100.00
68941;BME280;55982;51.476;7.552;2023-02-17T09:29:59;99934.38;;;12.00;100.00
68941;BME280;55982;51.476;7.552;2023-02-17T09:32:25;99929.00;;;12.03;100.00
68941;BME280;55982;51.476;7.552;2023-02-17T09:34:50;99938.09;;;12.18;100.00
68941;BME280;55982;51.476;7.552;2023-02-17T09:37:16;99928.56;;;12.15;100.00
68941;BME280;55982;51.476;7.552;2023-02-17T09:39:42;99945.88;;;12.19;100.00
68941;BME280;55982;51.476;7.552;2023-02-17T09:42:18;99942.25;;;12.23;100.00
68941;BME280;55982;51.476;7.552;2023-02-17T09:44:45;99934.25;;;12.26;100.00
68941;BME280;55982;51.476;7.552;2023-02-17T09:47:14;99920.16;;;12.29;100.00
68941;BME280;55982;51.476;7.552;2023-02-17T09:49:49;99908.44;;;12.37;100.00
68941;BME280;55982;51.476;7.552;2023-02-17T09:57:06;99904.81;;;12.63;100.00
68941;BME280;55982;51.476;7.552;2023-02-17T09:59:34;99912.38;;;12.70;100.00
68941;BME280;55982;51.476;7.552;2023-02-17T10:02:04;99916.19;;;12.83;100.00
68941;BME280;55982;51.476;7.552;2023-02-17T10:04:38;99919.69;;;12.84;100.00
68941;BME280;55982;51.476;7.552;2023-02-17T10:07:23;99928.13;;;12.92;100.00
68941;BME280;55982;51.476;7.552;2023-02-17T10:10:10;99905.78;;;13.04;100.00
68941;BME280;55982;51.476;7.552;2023-02-17T10:12:40;99916.28;;;13.24;100.00
68941;BME280;55982;51.476;7.552;2023-02-17T10:15:09;99923.53;;;13.39;100.00
68941;BME280;55982;51.476;7.552;2023-02-17T10:22:30;99962.56;;;13.48;100.00
68941;BME280;55982;51.476;7.552;2023-02-17T10:24:56;99951.66;;;13.57;100.00
68941;BME280;55982;51.476;7.552;2023-02-17T10:27:27;99953.63;;;13.52;100.00
68941;BME280;55982;51.476;7.552;2023-02-17T10:30:03;99939.31;;;13.39;100.00
68941;BME280;55982;51.476;7.552;2023-02-17T10:32:48;99955.19;;;13.36;100.00
68941;BME280;55982;51.476;7.552;2023-02-17T10:35:28;99948.56;;;13.47;100.00
68941;BME280;55982;51.476;7.552;2023-02-17T10:38:02;99957.84;;;13.56;100.00
68941;BME280;55982;51.476;7.552;2023-02-17T10:40:30;99944.94;;;13.70;100.00
68941;BME280;55982;51.476;7.552;2023-02-17T10:42:56;99930.47;;;13.80;100.00
68941;BME280;55982;51.476;7.552;2023-02-17T10:48:05;99923.09;;;13.88;100.00
68941;BME280;55982;51.476;7.552;2023-02-17T10:50:31;99918.13;;;14.01;100.00
68941;BME280;55982;51.476;7.552;2023-02-17T10:52:58;99904.69;;;13.88;100.00
68941;BME280;55982;51.476;7.552;2023-02-17T10:55:28;99933.97;;;13.99;100.00
68941;BME280;55982;51.476;7.552;2023-02-17T10:58:02;99915.72;;;13.96;100.00
68941;BME280;55982;51.476;7.552;2023-02-17T11:00:29;99921.75;;;13.98;100.00
68941;BME280;55982;51.476;7.552;2023-02-17T11:02:54;99911.00;;;13.84;100.00
68941;BME280;55982;51.476;7.552;2023-02-17T11:05:24;99912.59;;;13.68;100.00
68941;BME280;55982;51.476;7.552;2023-02-17T11:07:53;99916.09;;;13.87;100.00
68941;BME280;55982;51.476;7.552;2023-02-17T11:10:24;99911.41;;;13.75;100.00
68941;BME280;55982;51.476;7.552;2023-02-17T11:12:51;99909.97;;;13.68;100.00
68941;BME280;55982;51.476;7.552;2023-02-17T11:15:17;99906.69;;;13.63;100.00
68941;BME280;55982;51.476;7.552;2023-02-17T11:17:43;99897.59;;;13.70;100.00
68941;BME280;55982;51.476;7.552;2023-02-17T11:25:26;99898.47;;;13.70;100.00
68941;BME280;55982;51.476;7.552;2023-02-17T11:27:56;99870.91;;;13.79;100.00
68941;BME280;55982;51.476;7.552;2023-02-17T11:30:23;99882.16;;;14.01;100.00
68941;BME280;55982;51.476;7.552;2023-02-17T11:32:49;99882.03;;;14.04;100.00
68941;BME280;55982;51.476;7.552;2023-02-17T11:35:27;99879.19;;;14.46;100.00
68941;BME280;55982;51.476;7.552;2023-02-17T11:38:13;99882.59;;;14.29;100.00
68941;BME280;55982;51.476;7.552;2023-02-17T11:40:39;99895.09;;;14.61;100.00
68941;BME280;55982;51.476;7.552;2023-02-17T11:43:04;99894.16;;;14.62;100.00
68941;BME280;55982;51.476;7.552;2023-02-17T11:45:33;99889.47;;;14.86;100.00
68941;BME280;55982;51.476;7.552;2023-02-17T11:50:39;99878.72;;;14.91;100.00
68941;BME280;55982;51.476;7.552;2023-02-17T11:55:53;99907.69;;;14.91;100.00
68941;BME280;55982;51.476;7.552;2023-02-17T12:11:50;99888.69;;;14.48;100.00
68941;BME280;55982;51.476;7.552;2023-02-17T12:14:58;99905.19;;;14.71;100.00
68941;BME280;55982;51.476;7.552;2023-02-17T12:17:20;99888.88;;;14.98;100.00
68941;BME280;55982;51.476;7.552;2023-02-17T12:19:58;99882.66;;;14.82;100.00
68941;BME280;55982;51.476;7.552;2023-02-17T12:25:05;99870.34;;;14.83;100.00
68941;BME280;55982;51.476;7.552;2023-02-17T12:30:27;99855.25;;;14.50;100.00
68941;BME280;55982;51.476;7.552;2023-02-17T12:35:46;99861.91;;;14.40;100.00
68941;BME280;55982;51.476;7.552;2023-02-17T12:38:23;99872.56;;;14.37;100.00
68941;BME280;55982;51.476;7.552;2023-02-17T12:43:26;99856.84;;;14.17;100.00
68941;BME280;55982;51.476;7.552;2023-02-17T12:45:56;99851.31;;;14.23;100.00
68941;BME280;55982;51.476;7.552;2023-02-17T12:53:43;99860.97;;;14.04;100.00
68941;BME280;55982;51.476;7.552;2023-02-17T12:56:36;99859.25;;;14.03;100.00
68941;BME280;55982;51.476;7.552;2023-02-17T12:58:56;99877.03;;;13.98;100.00
68941;BME280;55982;51.476;7.552;2023-02-17T13:01:24;99861.66;;;13.89;100.00
68941;BME280;55982;51.476;7.552;2023-02-17T13:03:50;99870.34;;;13.91;100.00
68941;BME280;55982;51.476;7.552;2023-02-17T13:06:22;99873.75;;;13.93;100.00
68941;BME280;55982;51.476;7.552;2023-02-17T13:11:28;99897.41;;;13.93;100.00
68941;BME280;55982;51.476;7.552;2023-02-17T13:13:54;99887.13;;;13.89;100.00
68941;BME280;55982;51.476;7.552;2023-02-17T13:16:19;99883.91;;;13.82;100.00
68941;BME280;55982;51.476;7.552;2023-02-17T13:18:45;99889.69;;;13.90;100.00
68941;BME280;55982;51.476;7.552;2023-02-17T13:21:25;99896.16;;;13.83;100.00
68941;BME280;55982;51.476;7.552;2023-02-17T13:24:02;99899.63;;;13.84;100.00
68941;BME280;55982;51.476;7.552;2023-02-17T13:26:31;99902.06;;;13.88;100.00
68941;BME280;55982;51.476;7.552;2023-02-17T13:34:57;99896.78;;;13.88;100.00
68941;BME280;55982;51.476;7.552;2023-02-17T13:37:14;99889.53;;;13.93;100.00
68941;BME280;55982;51.476;7.552;2023-02-17T13:39:40;99899.94;;;13.96;100.00
68941;BME280;55982;51.476;7.552;2023-02-17T13:42:26;99906.78;;;13.80;100.00
68941;BME280;55982;51.476;7.552;2023-02-17T13:44:50;99907.59;;;13.82;100.00
68941;BME280;55982;51.476;7.552;2023-02-17T13:47:17;99911.84;;;13.85;100.00
68941;BME280;55982;51.476;7.552;2023-02-17T13:49:50;99900.47;;;13.84;100.00
68941;BME280;55982;51.476;7.552;2023-02-17T13:52:17;99912.06;;;13.80;100.00
68941;BME280;55982;51.476;7.552;2023-02-17T13:54:56;99911.97;;;13.82;100.00
68941;BME280;55982;51.476;7.552;2023-02-17T13:57:26;99925.19;;;13.80;100.00
68941;BME280;55982;51.476;7.552;2023-02-17T13:59:52;99917.38;;;13.78;100.00
68941;BME280;55982;51.476;7.552;2023-02-17T14:02:20;99921.50;;;13.84;100.00
68941;BME280;55982;51.476;7.552;2023-02-17T14:04:46;99923.63;;;13.76;100.00
68941;BME280;55982;51.476;7.552;2023-02-17T14:07:11;99927.47;;;13.69;100.00
68941;BME280;55982;51.476;7.552;2023-02-17T14:09:43;99929.41;;;13.64;100.00
68941;BME280;55982;51.476;7.552;2023-02-17T14:12:18;99934.16;;;13.76;100.00
68941;BME280;55982;51.476;7.552;2023-02-17T14:14:45;99944.81;;;13.73;100.00
68941;BME280;55982;51.476;7.552;2023-02-17T14:17:31;99955.31;;;13.73;100.00
68941;BME280;55982;51.476;7.552;2023-02-17T14:19:56;99967.94;;;13.65;100.00
68941;BME280;55982;51.476;7.552;2023-02-17T14:22:29;99974.25;;;13.61;100.00
68941;BME280;55982;51.476;7.552;2023-02-17T14:25:05;99977.16;;;13.35;100.00
68941;BME280;55982;51.476;7.552;2023-02-17T14:27:52;99989.06;;;13.22;100.00